createdAt,value
2023-12-09T00:00:23.305Z,41.90
2023-12-09T00:02:51.535Z,41.70
2023-12-09T00:05:19.725Z,44.33
2023-12-09T00:07:47.880Z,43.08
2023-12-09T00:10:16.131Z,43.90
2023-12-09T00:12:45.701Z,44.63
2023-12-09T00:15:13.963Z,43.10
2023-12-09T00:17:42.074Z,45.78
2023-12-09T00:20:11.086Z,44.45
2023-12-09T00:22:39.257Z,43.58
2023-12-09T00:25:09.376Z,41.75
2023-12-09T00:27:37.645Z,42.58
2023-12-09T00:30:08.994Z,43.20
2023-12-09T00:32:37.292Z,43.22
2023-12-09T00:35:06.359Z,42.83
2023-12-09T00:37:34.698Z,44.00
2023-12-09T00:40:02.810Z,44.63
2023-12-09T00:42:30.931Z,42.47
2023-12-09T00:44:59.027Z,42.50
2023-12-09T00:47:28.732Z,43.45
2023-12-09T00:49:56.860Z,43.85
2023-12-09T00:52:25.413Z,43.10
2023-12-09T00:54:53.832Z,44.65
2023-12-09T00:57:23.684Z,43.35
2023-12-09T00:59:52.222Z,43.28
2023-12-09T01:02:20.445Z,44.10
2023-12-09T01:04:52.018Z,41.47
2023-12-09T01:07:20.272Z,43.88
2023-12-09T01:09:48.437Z,44.25
2023-12-09T01:12:16.642Z,42.65
2023-12-09T01:14:44.782Z,41.60
2023-12-09T01:17:12.949Z,43.22
2023-12-09T01:19:41.126Z,43.15
2023-12-09T01:22:11.171Z,42.30
2023-12-09T01:24:39.384Z,42.80
2023-12-09T01:27:07.644Z,42.08
2023-12-09T01:29:35.917Z,43.07
2023-12-09T01:32:04.210Z,42.33
2023-12-09T01:34:32.596Z,43.00
2023-12-09T01:37:00.857Z,42.50
2023-12-09T01:39:31.044Z,42.00
2023-12-09T01:41:59.546Z,41.92
2023-12-09T01:44:30.646Z,42.45
2023-12-09T01:46:58.750Z,42.80
2023-12-09T01:49:27.345Z,42.20
2023-12-09T01:51:59.553Z,41.83
2023-12-09T01:54:29.729Z,42.00
2023-12-09T01:56:58.578Z,43.17
2023-12-09T01:59:26.789Z,43.03
2023-12-09T02:01:55.325Z,42.15
2023-12-09T02:04:23.856Z,42.70
2023-12-09T02:06:53.346Z,43.13
2023-12-09T02:09:21.699Z,42.30
2023-12-09T02:11:57.534Z,43.33
2023-12-09T02:14:35.091Z,42.33
2023-12-09T02:17:10.876Z,43.63
2023-12-09T02:19:39.648Z,43.17
2023-12-09T02:22:09.705Z,43.90
2023-12-09T02:24:39.396Z,44.28
2023-12-09T02:27:13.548Z,43.72
2023-12-09T02:29:53.045Z,42.65
2023-12-09T02:32:28.441Z,42.63
2023-12-09T02:34:57.344Z,42.73
2023-12-09T02:37:27.268Z,42.55
2023-12-09T02:39:57.947Z,42.42
2023-12-09T02:42:27.704Z,42.00
2023-12-09T02:44:57.009Z,43.53
2023-12-09T02:47:26.432Z,41.97
2023-12-09T02:49:55.495Z,42.03
2023-12-09T02:52:23.704Z,42.83
2023-12-09T02:54:51.849Z,43.27
2023-12-09T02:57:21.509Z,43.20
2023-12-09T02:59:49.736Z,43.67
2023-12-09T03:02:20.157Z,42.60
2023-12-09T03:04:48.306Z,44.20
2023-12-09T03:07:21.142Z,45.40
2023-12-09T03:09:49.463Z,44.03
2023-12-09T03:12:18.054Z,44.13
2023-12-09T03:14:47.875Z,43.10
2023-12-09T03:17:15.992Z,43.83
2023-12-09T03:19:44.303Z,43.40
2023-12-09T03:22:12.434Z,44.67
2023-12-09T03:24:40.542Z,44.47
2023-12-09T03:27:08.770Z,43.47
2023-12-09T03:29:39.169Z,43.40
2023-12-09T03:32:09.241Z,42.83
2023-12-09T03:34:37.592Z,42.97
2023-12-09T03:37:06.024Z,43.20
2023-12-09T03:39:34.349Z,42.67
2023-12-09T03:42:02.698Z,42.00
2023-12-09T03:44:31.819Z,42.97
2023-12-09T03:47:01.731Z,42.10
2023-12-09T03:49:33.756Z,41.63
2023-12-09T03:52:02.174Z,42.40
2023-12-09T03:54:30.573Z,42.00
2023-12-09T03:56:58.869Z,43.30
2023-12-09T03:59:27.346Z,42.43
2023-12-09T04:01:57.197Z,43.05
2023-12-09T04:04:27.708Z,44.00
2023-12-09T04:06:57.314Z,42.93
2023-12-09T04:09:25.585Z,42.88
2023-12-09T04:11:54.128Z,42.23
2023-12-09T04:14:22.351Z,44.17
2023-12-09T04:16:50.489Z,43.87
2023-12-09T04:19:21.698Z,43.87
2023-12-09T04:21:49.886Z,44.23
2023-12-09T04:24:19.717Z,42.60
2023-12-09T04:26:48.294Z,43.40
2023-12-09T04:29:16.412Z,43.07
2023-12-09T04:31:45.475Z,44.27
2023-12-09T04:34:13.635Z,43.67
2023-12-09T04:36:42.481Z,44.10
2023-12-09T04:39:11.451Z,43.20
2023-12-09T04:41:42.581Z,41.70
2023-12-09T04:44:10.883Z,43.93
2023-12-09T04:46:39.246Z,45.07
2023-12-09T04:49:07.687Z,44.60
2023-12-09T04:51:36.509Z,44.40
2023-12-09T04:54:04.906Z,44.13
2023-12-09T04:56:33.159Z,44.08
2023-12-09T04:59:02.764Z,44.83
2023-12-09T05:01:31.102Z,43.53
2023-12-09T05:03:59.638Z,44.20
2023-12-09T05:06:29.822Z,44.43
2023-12-09T05:08:58.213Z,44.90
2023-12-09T05:11:26.525Z,44.80
2023-12-09T05:13:54.772Z,47.03
2023-12-09T05:16:24.446Z,47.60
2023-12-09T05:18:53.451Z,46.50
2023-12-09T05:21:21.808Z,43.17
2023-12-09T05:24:04.083Z,44.50
2023-12-09T05:26:33.374Z,45.25
2023-12-09T05:29:02.157Z,44.57
2023-12-09T05:31:31.639Z,45.33
2023-12-09T05:33:59.891Z,44.78
2023-12-09T05:36:28.126Z,46.10
2023-12-09T05:38:56.317Z,45.70
2023-12-09T05:41:24.600Z,44.63
2023-12-09T05:43:52.814Z,45.72
2023-12-09T05:46:21.916Z,44.50
2023-12-09T05:48:51.817Z,45.20
2023-12-09T05:51:20.245Z,45.27
2023-12-09T05:53:48.491Z,46.58
2023-12-09T05:56:16.694Z,46.87
2023-12-09T05:58:44.749Z,48.87
2023-12-09T06:01:13.022Z,48.87
2023-12-09T06:03:41.228Z,50.40
2023-12-09T06:06:11.210Z,48.80
2023-12-09T06:08:39.469Z,49.40
2023-12-09T06:11:07.831Z,49.43
2023-12-09T06:13:36.548Z,50.33
2023-12-09T06:16:07.698Z,49.17
2023-12-09T06:18:41.888Z,49.63
2023-12-09T06:21:11.433Z,49.20
2023-12-09T06:23:39.602Z,49.00
2023-12-09T06:26:08.885Z,51.20
2023-12-09T06:28:38.680Z,51.60
2023-12-09T06:31:11.748Z,52.13
2023-12-09T06:33:40.512Z,50.77
2023-12-09T06:36:09.734Z,51.17
2023-12-09T06:38:42.516Z,51.13
2023-12-09T06:41:12.886Z,49.67
2023-12-09T06:43:43.392Z,49.67
2023-12-09T06:46:11.555Z,51.50
2023-12-09T06:48:46.010Z,50.17
2023-12-09T06:51:17.185Z,52.37
2023-12-09T06:53:50.955Z,53.50
2023-12-09T06:56:22.374Z,53.33
2023-12-09T06:58:50.949Z,51.08
2023-12-09T07:01:22.895Z,53.13
2023-12-09T07:03:51.815Z,53.25
2023-12-09T07:06:24.030Z,55.05
2023-12-09T07:08:54.577Z,56.83
2023-12-09T07:11:24.315Z,59.22
2023-12-09T07:13:52.851Z,56.80
2023-12-09T07:16:21.102Z,57.30
2023-12-09T07:18:52.274Z,60.03
2023-12-09T07:21:23.724Z,58.97
2023-12-09T07:23:53.390Z,56.87
2023-12-09T07:26:21.616Z,53.77
2023-12-09T07:28:49.918Z,55.67
2023-12-09T07:31:18.526Z,56.80
2023-12-09T07:33:46.973Z,58.83
2023-12-09T07:36:15.371Z,57.40
2023-12-09T07:38:46.126Z,58.78
2023-12-09T07:41:16.101Z,56.53
2023-12-09T07:43:44.317Z,56.45
2023-12-09T07:46:15.110Z,60.25
2023-12-09T07:48:43.409Z,54.33
2023-12-09T07:51:12.012Z,55.38
2023-12-09T07:53:40.165Z,55.22
2023-12-09T07:56:09.166Z,54.50
2023-12-09T07:58:38.752Z,54.13
2023-12-09T08:01:10.228Z,53.53
2023-12-09T08:03:39.729Z,51.45
2023-12-09T08:06:08.513Z,51.17
2023-12-09T08:08:37.936Z,53.83
2023-12-09T08:11:06.956Z,50.33
2023-12-09T08:13:35.382Z,51.00
2023-12-09T08:16:05.515Z,49.85
2023-12-09T08:18:34.243Z,51.15
2023-12-09T08:21:06.858Z,47.42
2023-12-09T08:23:35.099Z,49.03
2023-12-09T08:26:05.173Z,49.92
2023-12-09T08:28:35.402Z,49.08
2023-12-09T08:31:05.672Z,47.92
2023-12-09T08:33:34.085Z,46.85
2023-12-09T08:36:03.054Z,48.00
2023-12-09T08:38:31.647Z,48.25
2023-12-09T08:40:59.904Z,46.13
2023-12-09T08:43:28.178Z,47.08
2023-12-09T08:45:56.405Z,47.42
2023-12-09T08:48:26.240Z,48.58
2023-12-09T08:50:54.528Z,47.35
2023-12-09T08:53:22.783Z,48.30
2023-12-09T08:55:50.980Z,49.38
2023-12-09T08:58:19.238Z,46.85
2023-12-09T09:00:50.078Z,46.50
2023-12-09T09:03:20.285Z,45.33
2023-12-09T09:05:51.331Z,45.92
2023-12-09T09:08:22.336Z,44.03
2023-12-09T09:10:51.783Z,42.35
2023-12-09T09:13:20.307Z,42.92
2023-12-09T09:15:48.422Z,42.97
2023-12-09T09:18:17.534Z,41.92
2023-12-09T09:20:47.790Z,41.90
2023-12-09T09:23:17.318Z,41.60
2023-12-09T09:25:45.493Z,41.72
2023-12-09T09:28:13.801Z,41.47
2023-12-09T09:30:44.785Z,41.25
2023-12-09T09:33:13.161Z,40.50
2023-12-09T09:35:41.489Z,40.85
2023-12-09T09:38:09.515Z,39.92
2023-12-09T09:40:38.974Z,39.47
2023-12-09T09:43:10.591Z,38.97
2023-12-09T09:45:39.268Z,38.72
2023-12-09T09:48:08.152Z,40.00
2023-12-09T09:50:41.966Z,40.60
2023-12-09T09:53:12.959Z,40.53
2023-12-09T09:55:43.764Z,39.95
2023-12-09T09:58:14.590Z,39.58
2023-12-09T10:00:43.080Z,39.97
2023-12-09T10:03:11.556Z,39.10
2023-12-09T10:05:39.935Z,39.97
2023-12-09T10:08:08.272Z,37.58
2023-12-09T10:10:36.737Z,38.05
2023-12-09T10:13:06.518Z,38.13
2023-12-09T10:15:34.712Z,40.40
2023-12-09T10:18:04.995Z,38.90
2023-12-09T10:20:36.522Z,37.72
2023-12-09T10:23:04.788Z,38.97
2023-12-09T10:25:32.879Z,39.08
2023-12-09T10:28:01.284Z,36.03
2023-12-09T10:30:31.344Z,37.38
2023-12-09T10:33:01.552Z,37.75
2023-12-09T10:35:31.352Z,38.70
2023-12-09T10:38:03.357Z,37.50
2023-12-09T10:40:31.760Z,39.15
2023-12-09T10:43:00.038Z,41.08
2023-12-09T10:45:28.240Z,35.70
2023-12-09T10:47:57.976Z,36.58
2023-12-09T10:50:26.341Z,38.10
2023-12-09T10:52:54.571Z,37.03
2023-12-09T10:55:22.913Z,37.55
2023-12-09T10:57:53.019Z,37.42
2023-12-09T11:00:22.300Z,38.30
2023-12-09T11:02:51.766Z,37.28
2023-12-09T11:05:23.258Z,38.00
2023-12-09T11:07:52.213Z,36.35
2023-12-09T11:10:21.836Z,37.58
2023-12-09T11:12:50.432Z,37.90
2023-12-09T11:15:29.788Z,36.50
2023-12-09T11:18:08.122Z,36.92
2023-12-09T11:20:40.403Z,37.05
2023-12-09T11:23:11.749Z,35.92
2023-12-09T11:25:41.811Z,36.55
2023-12-09T11:28:14.768Z,37.35
2023-12-09T11:30:45.872Z,37.58
2023-12-09T11:33:14.678Z,37.75
2023-12-09T11:35:47.337Z,36.65
2023-12-09T11:38:16.492Z,35.75
2023-12-09T11:40:47.229Z,36.92
2023-12-09T11:43:18.708Z,37.42
2023-12-09T11:45:47.981Z,36.20
2023-12-09T11:48:17.704Z,37.42
2023-12-09T11:50:47.493Z,37.47
2023-12-09T11:53:18.056Z,39.72
2023-12-09T11:55:47.692Z,36.70
2023-12-09T11:58:15.923Z,39.13
2023-12-09T12:00:44.287Z,38.15
2023-12-09T12:03:12.610Z,36.63
2023-12-09T12:05:40.930Z,36.40
2023-12-09T12:08:16.742Z,36.65
2023-12-09T12:10:45.162Z,37.83
2023-12-09T12:13:17.231Z,37.05
2023-12-09T12:15:46.061Z,36.90
2023-12-09T12:18:15.494Z,36.72
2023-12-09T12:20:44.217Z,36.22
2023-12-09T12:23:26.384Z,34.15
2023-12-09T12:26:04.308Z,34.35
2023-12-09T12:28:32.926Z,35.20
2023-12-09T12:31:05.177Z,36.53
2023-12-09T12:33:33.956Z,33.92
2023-12-09T12:36:12.699Z,32.28
2023-12-09T12:39:10.563Z,34.03
2023-12-09T12:41:39.396Z,34.58
2023-12-09T12:44:10.670Z,34.83
2023-12-09T12:46:41.720Z,33.60
2023-12-09T12:49:13.277Z,32.65
2023-12-09T12:51:51.661Z,33.50
2023-12-09T12:54:25.108Z,32.92
2023-12-09T12:57:10.547Z,32.45
2023-12-09T12:59:42.004Z,32.83
2023-12-09T13:02:15.518Z,33.00
2023-12-09T13:04:46.441Z,32.65
2023-12-09T13:07:18.122Z,32.03
2023-12-09T13:10:01.199Z,31.15
2023-12-09T13:12:32.097Z,32.65
2023-12-09T13:15:03.328Z,32.10
2023-12-09T13:17:35.102Z,31.50
2023-12-09T13:20:08.133Z,32.88
2023-12-09T13:22:38.623Z,33.50
2023-12-09T13:25:16.574Z,33.35
2023-12-09T13:27:47.172Z,33.03
2023-12-09T13:30:16.084Z,34.05
2023-12-09T13:32:45.574Z,32.63
2023-12-09T13:35:18.403Z,32.90
2023-12-09T13:37:47.528Z,32.22
2023-12-09T13:40:20.886Z,31.73
2023-12-09T13:42:51.284Z,31.77
2023-12-09T13:45:19.995Z,31.50
2023-12-09T13:47:51.743Z,30.50
2023-12-09T13:50:23.190Z,30.42
2023-12-09T13:52:59.536Z,31.40
2023-12-09T13:55:36.119Z,31.45
2023-12-09T13:58:05.164Z,30.75
2023-12-09T14:00:38.948Z,31.40
2023-12-09T14:03:10.153Z,30.20
2023-12-09T14:05:40.830Z,29.95
2023-12-09T14:08:09.270Z,30.60
2023-12-09T14:10:40.265Z,30.15
2023-12-09T14:13:09.632Z,29.63
2023-12-09T14:15:39.981Z,31.02
2023-12-09T14:18:08.605Z,30.20
2023-12-09T14:20:37.012Z,30.10
2023-12-09T14:23:06.237Z,31.17
2023-12-09T14:25:40.067Z,29.90
2023-12-09T14:28:08.356Z,30.50
2023-12-09T14:30:36.721Z,30.25
2023-12-09T14:33:05.309Z,31.02
2023-12-09T14:35:33.820Z,30.25
2023-12-09T14:38:07.301Z,30.30
2023-12-09T14:40:35.659Z,30.35
2023-12-09T14:43:10.602Z,30.30
2023-12-09T14:45:40.045Z,29.88
2023-12-09T14:48:09.869Z,30.25
2023-12-09T14:50:38.338Z,29.08
2023-12-09T14:53:06.948Z,30.25
2023-12-09T14:55:35.899Z,29.40
2023-12-09T14:58:08.027Z,28.52
2023-12-09T15:00:36.561Z,29.55
2023-12-09T15:03:06.011Z,28.88
2023-12-09T15:05:39.478Z,28.35
2023-12-09T15:08:08.912Z,28.70
2023-12-09T15:10:37.183Z,29.90
2023-12-09T15:13:06.985Z,30.70
2023-12-09T15:15:35.332Z,30.58
2023-12-09T15:18:04.180Z,31.27
2023-12-09T15:20:33.027Z,32.75
2023-12-09T15:23:01.627Z,31.33
2023-12-09T15:25:30.219Z,31.67
2023-12-09T15:27:58.571Z,31.08
2023-12-09T15:30:31.234Z,32.95
2023-12-09T15:32:59.739Z,32.85
2023-12-09T15:35:28.210Z,33.30
2023-12-09T15:37:58.344Z,31.45
2023-12-09T15:40:26.866Z,30.67
2023-12-09T15:42:55.249Z,30.80
2023-12-09T15:45:23.513Z,30.50
2023-12-09T15:47:53.402Z,29.88
2023-12-09T15:50:21.772Z,29.92
2023-12-09T15:52:50.191Z,30.17
2023-12-09T15:55:20.046Z,29.63
2023-12-09T15:57:48.406Z,30.05
2023-12-09T16:00:17.644Z,29.23
2023-12-09T16:02:47.117Z,29.33
2023-12-09T16:05:17.151Z,28.42
2023-12-09T16:07:45.496Z,27.17
2023-12-09T16:10:14.028Z,28.02
2023-12-09T16:12:46.243Z,28.00
2023-12-09T16:15:15.471Z,27.48
2023-12-09T16:17:44.108Z,27.73
2023-12-09T16:20:13.506Z,27.13
2023-12-09T16:22:46.497Z,27.38
2023-12-09T16:25:15.118Z,27.58
2023-12-09T16:27:43.797Z,26.05
2023-12-09T16:30:13.126Z,26.65
2023-12-09T16:32:41.534Z,27.73
2023-12-09T16:35:10.548Z,27.85
2023-12-09T16:37:39.537Z,28.10
2023-12-09T16:40:12.034Z,28.10
2023-12-09T16:42:40.558Z,28.90
2023-12-09T16:45:12.284Z,29.25
2023-12-09T16:47:42.561Z,29.58
2023-12-09T16:50:12.274Z,29.40
2023-12-09T16:52:41.401Z,29.38
2023-12-09T16:55:11.828Z,29.80
2023-12-09T16:57:40.393Z,30.63
2023-12-09T17:00:09.770Z,30.95
2023-12-09T17:02:38.269Z,31.23
2023-12-09T17:05:07.403Z,30.33
2023-12-09T17:07:37.664Z,32.40
2023-12-09T17:10:06.611Z,31.45
2023-12-09T17:12:40.768Z,32.53
2023-12-09T17:15:10.078Z,31.27
2023-12-09T17:17:39.170Z,31.73
2023-12-09T17:20:09.219Z,30.98
2023-12-09T17:22:37.667Z,30.27
2023-12-09T17:25:06.905Z,28.35
2023-12-09T17:27:37.491Z,31.92
2023-12-09T17:30:06.722Z,29.80
2023-12-09T17:32:35.141Z,28.42
2023-12-09T17:35:03.594Z,28.42
2023-12-09T17:37:32.054Z,30.65
2023-12-09T17:40:01.161Z,29.15
2023-12-09T17:42:29.744Z,28.65
2023-12-09T17:44:59.762Z,29.80
2023-12-09T17:47:28.256Z,29.50
2023-12-09T17:49:58.505Z,29.65
2023-12-09T17:52:29.934Z,29.90
2023-12-09T17:54:59.598Z,29.95
2023-12-09T17:57:28.013Z,31.10
2023-12-09T17:59:56.592Z,30.85
2023-12-09T18:02:26.565Z,31.02
2023-12-09T18:04:55.054Z,29.70
2023-12-09T18:07:23.360Z,26.50
2023-12-09T18:09:51.797Z,24.75
2023-12-09T18:12:20.238Z,21.65
2023-12-09T18:14:49.142Z,19.90
2023-12-09T18:17:17.560Z,19.05
2023-12-09T18:19:47.894Z,17.13
2023-12-09T18:22:18.420Z,17.80
2023-12-09T18:24:48.133Z,16.27
2023-12-09T18:27:16.740Z,13.93
2023-12-09T18:29:45.049Z,15.23
2023-12-09T18:32:16.605Z,16.60
2023-12-09T18:34:46.558Z,17.20
2023-12-09T18:37:14.818Z,17.05
2023-12-09T18:39:43.165Z,17.90
2023-12-09T18:42:11.690Z,19.15
2023-12-09T18:44:40.054Z,19.65
2023-12-09T18:47:08.368Z,20.73
2023-12-09T18:49:36.829Z,21.13
2023-12-09T18:52:06.884Z,21.63
2023-12-09T18:54:36.766Z,21.60
2023-12-09T18:57:05.302Z,20.75
2023-12-09T18:59:33.783Z,23.10
2023-12-09T19:02:14.200Z,21.85
2023-12-09T19:04:44.530Z,21.17
2023-12-09T19:07:14.732Z,21.02
2023-12-09T19:09:45.442Z,22.48
2023-12-09T19:12:14.052Z,21.55
2023-12-09T19:14:42.510Z,22.45
2023-12-09T19:17:10.827Z,21.88
2023-12-09T19:19:39.282Z,20.95
2023-12-09T19:22:07.667Z,20.50
2023-12-09T19:24:37.478Z,18.83
2023-12-09T19:27:06.777Z,18.38
2023-12-09T19:29:36.540Z,19.05
2023-12-09T19:32:05.490Z,19.42
2023-12-09T19:34:33.811Z,20.88
2023-12-09T19:37:04.219Z,20.48
2023-12-09T19:39:34.207Z,21.60
2023-12-09T19:42:04.043Z,22.75
2023-12-09T19:44:32.421Z,23.23
2023-12-09T19:47:00.822Z,24.15
2023-12-09T19:49:31.929Z,22.02
2023-12-09T19:52:00.779Z,24.10
2023-12-09T19:54:29.202Z,22.90
2023-12-09T19:57:05.568Z,23.75
2023-12-09T19:59:35.535Z,24.05
2023-12-09T20:02:03.766Z,24.55
2023-12-09T20:04:35.389Z,25.48
2023-12-09T20:07:03.930Z,24.33
2023-12-09T20:09:32.513Z,25.83
2023-12-09T20:12:00.897Z,24.65
2023-12-09T20:14:29.222Z,26.50
2023-12-09T20:16:58.955Z,26.20
2023-12-09T20:19:27.475Z,27.25
2023-12-09T20:21:55.812Z,26.50
2023-12-09T20:24:24.037Z,26.98
2023-12-09T20:26:52.564Z,26.23
2023-12-09T20:29:21.018Z,26.40
2023-12-09T20:31:49.286Z,26.13
2023-12-09T20:34:19.333Z,26.85
2023-12-09T20:36:48.935Z,26.52
2023-12-09T20:39:17.158Z,26.02
2023-12-09T20:41:45.343Z,26.33
2023-12-09T20:44:13.548Z,27.10
2023-12-09T20:46:44.876Z,27.20
2023-12-09T20:49:14.969Z,25.98
2023-12-09T20:51:47.071Z,27.45
2023-12-09T20:54:15.471Z,26.23
2023-12-09T20:56:43.861Z,24.40
2023-12-09T20:59:12.406Z,24.27
2023-12-09T21:01:46.192Z,23.05
2023-12-09T21:04:15.055Z,23.08
2023-12-09T21:06:43.664Z,23.13
2023-12-09T21:09:13.451Z,24.40
2023-12-09T21:11:41.783Z,23.67
2023-12-09T21:14:10.100Z,24.20
2023-12-09T21:16:38.563Z,23.60
2023-12-09T21:19:06.943Z,23.13
2023-12-09T21:21:35.313Z,22.95
2023-12-09T21:24:03.637Z,22.48
2023-12-09T21:26:33.517Z,21.90
2023-12-09T21:29:03.549Z,21.40
2023-12-09T21:31:31.915Z,21.38
2023-12-09T21:34:00.492Z,22.20
2023-12-09T21:36:28.852Z,20.90
2023-12-09T21:38:57.196Z,20.90
2023-12-09T21:41:25.786Z,22.27
2023-12-09T21:43:55.446Z,23.02
2023-12-09T21:46:25.164Z,21.58
2023-12-09T21:48:55.118Z,24.13
2023-12-09T21:51:23.473Z,23.92
2023-12-09T21:53:51.762Z,23.48
2023-12-09T21:56:23.568Z,23.40
2023-12-09T21:58:52.150Z,25.88
2023-12-09T22:01:22.677Z,26.58
2023-12-09T22:03:51.377Z,27.45
2023-12-09T22:06:20.839Z,28.27
2023-12-09T22:08:49.385Z,27.85
2023-12-09T22:11:18.386Z,28.98
2023-12-09T22:13:46.806Z,28.27
2023-12-09T22:16:22.140Z,28.90
2023-12-09T22:18:50.690Z,27.48
2023-12-09T22:21:19.381Z,27.70
2023-12-09T22:23:47.596Z,28.45
2023-12-09T22:26:15.935Z,28.27
2023-12-09T22:28:44.808Z,28.42
2023-12-09T22:31:13.593Z,27.75
2023-12-09T22:33:45.590Z,28.50
2023-12-09T22:36:21.023Z,26.50
2023-12-09T22:38:49.534Z,24.27
2023-12-09T22:41:22.540Z,24.42
2023-12-09T22:43:51.375Z,25.40
2023-12-09T22:46:26.931Z,24.17
2023-12-09T22:48:57.109Z,23.77
2023-12-09T22:51:26.530Z,22.63
2023-12-09T22:53:55.222Z,24.35
2023-12-09T22:56:23.947Z,23.75
2023-12-09T22:58:53.375Z,24.42
2023-12-09T23:01:27.664Z,24.90
2023-12-09T23:03:57.544Z,23.98
2023-12-09T23:06:26.011Z,24.70
2023-12-09T23:08:54.989Z,25.25
2023-12-09T23:11:23.486Z,23.63
2023-12-09T23:13:51.768Z,25.27
2023-12-09T23:16:20.049Z,25.52
2023-12-09T23:18:50.621Z,24.25
2023-12-09T23:21:20.519Z,24.98
2023-12-09T23:23:48.894Z,25.83
2023-12-09T23:26:17.634Z,23.40
2023-12-09T23:28:45.915Z,27.15
2023-12-09T23:31:16.490Z,29.23
2023-12-09T23:33:48.140Z,30.13
2023-12-09T23:36:16.938Z,30.75
2023-12-09T23:38:46.763Z,31.98
2023-12-09T23:41:15.775Z,34.22
2023-12-09T23:43:44.303Z,35.25
2023-12-09T23:46:16.289Z,36.65
2023-12-09T23:48:44.740Z,34.42
2023-12-09T23:51:13.267Z,36.25
2023-12-09T23:53:41.586Z,36.45
2023-12-09T23:56:11.907Z,38.35
2023-12-09T23:58:40.123Z,37.00
